createdAt,value
2022-10-07T00:00:55.843Z,3.53
2022-10-07T00:03:24.554Z,4.55
2022-10-07T00:06:00.723Z,4.35
2022-10-07T00:08:27.772Z,3.85
2022-10-07T00:10:54.878Z,4.30
2022-10-07T00:13:22.070Z,3.83
2022-10-07T00:15:48.847Z,3.42
2022-10-07T00:18:15.700Z,4.30
2022-10-07T00:20:42.542Z,4.03
2022-10-07T00:23:09.426Z,3.70
2022-10-07T00:25:40.028Z,3.47
2022-10-07T00:28:07.174Z,3.53
2022-10-07T00:30:34.113Z,3.72
2022-10-07T00:33:00.995Z,4.57
2022-10-07T00:35:27.938Z,3.67
2022-10-07T00:37:54.997Z,4.10
2022-10-07T00:40:21.826Z,4.47
2022-10-07T00:42:48.704Z,5.43
2022-10-07T00:45:17.297Z,3.90
2022-10-07T00:47:46.815Z,3.75
2022-10-07T00:50:16.777Z,3.45
2022-10-07T00:52:53.098Z,4.38
2022-10-07T00:55:25.229Z,3.50
2022-10-07T00:57:55.196Z,3.78
2022-10-07T01:00:24.165Z,4.35
2022-10-07T01:02:51.734Z,4.18
2022-10-07T01:05:19.892Z,3.97
2022-10-07T01:07:48.771Z,3.65
2022-10-07T01:10:20.305Z,3.63
2022-10-07T01:13:19.331Z,3.60
2022-10-07T01:15:49.018Z,3.95
2022-10-07T01:18:28.484Z,3.88
2022-10-07T01:21:40.279Z,3.60
2022-10-07T01:24:36.887Z,3.92
2022-10-07T01:27:15.426Z,3.95
2022-10-07T01:29:57.104Z,3.90
2022-10-07T01:32:41.850Z,3.83
2022-10-07T01:35:16.826Z,3.92
2022-10-07T01:37:48.987Z,4.85
2022-10-07T01:40:21.753Z,4.15
2022-10-07T01:42:49.877Z,4.32
2022-10-07T01:45:21.701Z,3.95
2022-10-07T01:47:49.552Z,4.60
2022-10-07T01:50:20.594Z,4.20
2022-10-07T01:53:20.340Z,5.85
2022-10-07T01:56:14.742Z,4.20
2022-10-07T01:58:42.631Z,5.68
2022-10-07T02:01:32.738Z,4.18
2022-10-07T02:04:25.610Z,4.25
2022-10-07T02:07:18.092Z,4.72
2022-10-07T02:10:15.939Z,4.28
2022-10-07T02:12:59.383Z,3.88
2022-10-07T02:15:43.076Z,5.05
2022-10-07T02:18:16.275Z,3.65
2022-10-07T02:20:49.189Z,4.32
2022-10-07T02:23:19.040Z,3.95
2022-10-07T02:25:49.470Z,3.47
2022-10-07T02:28:20.305Z,3.97
2022-10-07T02:30:53.627Z,3.78
2022-10-07T02:33:24.703Z,3.67
2022-10-07T02:35:54.871Z,3.67
2022-10-07T02:38:22.530Z,3.60
2022-10-07T02:41:06.241Z,3.63
2022-10-07T02:43:57.949Z,4.38
2022-10-07T02:46:31.678Z,3.17
2022-10-07T02:49:02.736Z,3.35
2022-10-07T02:51:37.074Z,3.47
2022-10-07T02:54:04.972Z,4.57
2022-10-07T02:56:36.224Z,4.25
2022-10-07T02:59:06.970Z,3.67
2022-10-07T03:01:39.252Z,3.65
2022-10-07T03:04:06.467Z,4.53
2022-10-07T03:06:35.695Z,3.75
2022-10-07T03:09:03.878Z,4.38
2022-10-07T03:11:31.129Z,4.00
2022-10-07T03:13:58.720Z,3.90
2022-10-07T03:16:26.340Z,3.90
2022-10-07T03:18:54.294Z,4.20
2022-10-07T03:21:33.951Z,3.85
2022-10-07T03:24:05.299Z,3.83
2022-10-07T03:26:38.311Z,4.87
2022-10-07T03:29:05.678Z,4.07
2022-10-07T03:31:32.646Z,4.25
2022-10-07T03:34:01.137Z,4.07
2022-10-07T03:36:28.342Z,4.78
2022-10-07T03:38:55.673Z,3.97
2022-10-07T03:41:24.294Z,3.83
2022-10-07T03:43:57.453Z,3.85
2022-10-07T03:46:25.666Z,4.45
2022-10-07T03:48:52.977Z,4.20
2022-10-07T03:51:20.382Z,4.28
2022-10-07T03:53:48.049Z,3.83
2022-10-07T03:56:15.178Z,4.10
2022-10-07T03:58:43.711Z,4.65
2022-10-07T04:01:16.299Z,4.22
2022-10-07T04:03:57.245Z,4.13
2022-10-07T04:06:25.029Z,3.92
2022-10-07T04:08:55.365Z,4.30
2022-10-07T04:11:24.268Z,3.65
2022-10-07T04:13:53.881Z,3.55
2022-10-07T04:16:23.123Z,4.13
2022-10-07T04:18:53.951Z,3.45
2022-10-07T04:21:22.549Z,3.45
2022-10-07T04:23:49.411Z,3.83
2022-10-07T04:26:16.894Z,4.28
2022-10-07T04:29:14.857Z,3.42
2022-10-07T04:31:41.887Z,3.60
2022-10-07T04:34:08.997Z,3.67
2022-10-07T04:36:39.803Z,3.00
2022-10-07T04:39:09.514Z,3.60
2022-10-07T04:41:41.003Z,3.83
2022-10-07T04:44:13.728Z,3.63
2022-10-07T04:46:48.961Z,3.97
2022-10-07T04:49:17.691Z,3.92
2022-10-07T04:51:44.560Z,3.72
2022-10-07T04:54:11.454Z,4.18
2022-10-07T04:59:23.748Z,3.65
2022-10-07T05:01:52.384Z,3.92
2022-10-07T05:04:19.812Z,3.67
2022-10-07T05:06:47.070Z,3.20
2022-10-07T05:09:14.887Z,3.72
2022-10-07T05:11:44.275Z,4.03
2022-10-07T05:14:21.338Z,3.50
2022-10-07T05:16:50.361Z,3.90
2022-10-07T05:19:17.860Z,4.75
2022-10-07T05:21:45.900Z,3.60
2022-10-07T05:24:13.803Z,4.00
2022-10-07T05:26:40.862Z,3.70
2022-10-07T05:29:09.647Z,3.90
2022-10-07T05:31:42.246Z,4.75
2022-10-07T05:34:10.334Z,3.92
2022-10-07T05:36:38.754Z,4.00
2022-10-07T05:39:07.057Z,4.25
2022-10-07T05:41:45.888Z,4.18
2022-10-07T05:44:16.221Z,3.50
2022-10-07T05:46:43.501Z,3.88
2022-10-07T05:49:12.229Z,4.30
2022-10-07T05:51:40.994Z,3.92
2022-10-07T05:54:08.499Z,3.60
2022-10-07T05:56:39.632Z,3.53
2022-10-07T05:59:06.689Z,3.55
2022-10-07T06:01:34.338Z,4.07
2022-10-07T06:04:08.124Z,4.43
2022-10-07T06:06:38.702Z,3.83
2022-10-07T06:09:27.562Z,4.45
2022-10-07T06:12:14.229Z,3.90
2022-10-07T06:17:09.657Z,4.50
2022-10-07T06:19:38.340Z,4.10
2022-10-07T06:22:05.660Z,4.57
2022-10-07T06:24:35.212Z,4.32
2022-10-07T06:27:02.913Z,3.85
2022-10-07T06:29:30.536Z,3.72
2022-10-07T06:31:57.889Z,4.40
2022-10-07T06:34:24.863Z,4.40
2022-10-07T06:36:53.094Z,5.03
2022-10-07T06:39:20.081Z,4.35
2022-10-07T06:41:47.680Z,4.85
2022-10-07T06:44:33.082Z,5.10
2022-10-07T06:47:01.539Z,4.30
2022-10-07T06:49:28.485Z,3.78
2022-10-07T06:51:55.335Z,4.03
2022-10-07T06:54:22.302Z,4.10
2022-10-07T06:56:49.341Z,4.32
2022-10-07T06:59:16.689Z,4.07
2022-10-07T07:01:52.472Z,3.83
2022-10-07T07:04:19.451Z,4.50
2022-10-07T07:06:46.768Z,3.28
2022-10-07T07:09:14.570Z,4.55
2022-10-07T07:11:45.178Z,4.15
2022-10-07T07:14:19.244Z,4.05
2022-10-07T07:16:53.417Z,3.63
2022-10-07T07:19:22.329Z,3.92
2022-10-07T07:21:51.275Z,4.93
2022-10-07T07:24:20.965Z,3.47
2022-10-07T07:26:48.559Z,4.20
2022-10-07T07:29:16.630Z,4.00
2022-10-07T07:31:57.375Z,4.25
2022-10-07T07:34:26.533Z,4.13
2022-10-07T07:36:53.494Z,4.30
2022-10-07T07:39:24.170Z,3.70
2022-10-07T07:41:57.722Z,4.28
2022-10-07T07:44:25.591Z,4.47
2022-10-07T07:46:55.817Z,3.40
2022-10-07T07:49:24.572Z,3.28
2022-10-07T07:51:52.177Z,4.00
2022-10-07T07:54:29.416Z,3.78
2022-10-07T07:56:58.047Z,3.40
2022-10-07T07:59:27.957Z,4.03
2022-10-07T08:01:57.471Z,3.80
2022-10-07T08:04:24.996Z,3.90
2022-10-07T08:06:52.227Z,3.92
2022-10-07T08:09:19.910Z,4.03
2022-10-07T08:11:48.684Z,4.25
2022-10-07T08:14:17.534Z,3.97
2022-10-07T08:16:47.409Z,3.85
2022-10-07T08:19:15.336Z,3.78
2022-10-07T08:21:42.467Z,3.45
2022-10-07T08:24:14.790Z,3.15
2022-10-07T08:26:41.677Z,3.70
2022-10-07T08:29:13.708Z,3.63
2022-10-07T08:31:42.646Z,3.78
2022-10-07T08:34:10.477Z,3.72
2022-10-07T08:36:37.547Z,4.35
2022-10-07T08:39:05.407Z,3.90
2022-10-07T08:41:36.181Z,4.45
2022-10-07T08:44:18.130Z,3.92
2022-10-07T08:46:57.628Z,4.68
2022-10-07T08:49:37.164Z,3.83
2022-10-07T08:52:17.469Z,3.80
2022-10-07T08:54:44.326Z,3.78
2022-10-07T08:57:43.647Z,4.18
2022-10-07T09:00:15.302Z,4.25
2022-10-07T09:03:26.811Z,3.85
2022-10-07T09:05:55.813Z,3.83
2022-10-07T09:08:28.711Z,3.70
2022-10-07T09:11:02.456Z,3.63
2022-10-07T09:13:36.018Z,3.70
2022-10-07T09:16:22.996Z,3.80
2022-10-07T09:18:56.195Z,3.63
2022-10-07T09:21:54.899Z,3.75
2022-10-07T09:24:26.112Z,3.22
2022-10-07T09:26:56.697Z,3.70
2022-10-07T09:29:26.592Z,3.13
2022-10-07T09:32:42.361Z,3.13
2022-10-07T09:35:23.522Z,3.72
2022-10-07T09:38:08.322Z,3.47
2022-10-07T09:40:36.807Z,3.35
2022-10-07T09:43:14.146Z,3.65
2022-10-07T09:45:46.273Z,3.75
2022-10-07T09:48:21.810Z,3.75
2022-10-07T09:53:25.716Z,2.95
2022-10-07T09:55:54.544Z,3.25
2022-10-07T09:58:25.031Z,3.05
2022-10-07T10:01:00.295Z,2.92
2022-10-07T10:03:36.288Z,3.10
2022-10-07T10:06:12.221Z,3.22
2022-10-07T10:08:43.197Z,3.47
2022-10-07T10:11:19.300Z,2.63
2022-10-07T10:13:49.302Z,2.65
2022-10-07T10:16:25.454Z,3.30
2022-10-07T10:19:02.401Z,2.92
2022-10-07T10:21:35.927Z,3.55
2022-10-07T10:24:06.299Z,2.58
2022-10-07T10:27:01.551Z,2.80
2022-10-07T10:29:46.543Z,2.63
2022-10-07T10:32:13.409Z,2.72
2022-10-07T10:35:01.703Z,2.55
2022-10-07T10:37:40.816Z,2.33
2022-10-07T10:40:32.376Z,2.53
2022-10-07T10:43:16.589Z,2.78
2022-10-07T10:46:28.412Z,2.75
2022-10-07T10:49:27.357Z,3.10
2022-10-07T10:52:18.021Z,2.65
2022-10-07T10:55:03.662Z,2.75
2022-10-07T10:57:33.288Z,2.40
2022-10-07T11:00:13.125Z,2.58
2022-10-07T11:02:43.125Z,2.88
2022-10-07T11:05:30.711Z,2.35
2022-10-07T11:08:27.228Z,3.10
2022-10-07T11:11:18.869Z,2.20
2022-10-07T11:13:55.746Z,2.90
2022-10-07T11:16:40.774Z,2.65
2022-10-07T11:19:18.106Z,2.70
2022-10-07T11:21:48.455Z,3.33
2022-10-07T11:24:40.700Z,2.63
2022-10-07T11:27:23.234Z,2.92
2022-10-07T11:29:59.008Z,2.90
2022-10-07T11:32:58.702Z,2.90
2022-10-07T11:35:31.405Z,2.28
2022-10-07T11:38:10.558Z,2.78
2022-10-07T11:40:57.900Z,2.45
2022-10-07T11:43:46.298Z,2.58
2022-10-07T11:46:18.671Z,2.60
2022-10-07T11:48:49.232Z,2.53
2022-10-07T11:51:32.655Z,3.05
2022-10-07T11:54:03.185Z,2.60
2022-10-07T11:56:45.484Z,2.60
2022-10-07T11:59:31.777Z,2.85
2022-10-07T12:01:58.772Z,1.85
2022-10-07T12:04:35.349Z,2.38
2022-10-07T12:07:55.411Z,2.70
2022-10-07T12:10:28.809Z,2.80
2022-10-07T12:13:02.258Z,2.20
2022-10-07T12:15:42.301Z,2.58
2022-10-07T12:18:13.278Z,2.55
2022-10-07T12:20:53.043Z,2.80
2022-10-07T12:23:20.396Z,2.83
2022-10-07T12:25:58.476Z,2.25
2022-10-07T12:28:48.791Z,2.78
2022-10-07T12:31:15.758Z,3.00
2022-10-07T12:33:45.781Z,2.55
2022-10-07T12:36:18.750Z,2.67
2022-10-07T12:39:08.012Z,3.15
2022-10-07T12:41:39.778Z,2.70
2022-10-07T12:44:21.292Z,2.50
2022-10-07T12:46:58.762Z,2.45
2022-10-07T12:49:47.801Z,2.22
2022-10-07T12:52:26.922Z,2.30
2022-10-07T12:55:01.224Z,2.78
2022-10-07T12:57:33.961Z,2.58
2022-10-07T13:00:07.852Z,2.67
2022-10-07T13:02:53.413Z,2.22
2022-10-07T13:05:38.337Z,2.38
2022-10-07T13:08:27.001Z,2.50
2022-10-07T13:11:16.419Z,1.80
2022-10-07T13:14:19.116Z,2.45
2022-10-07T13:17:07.594Z,1.95
2022-10-07T13:19:42.498Z,2.25
2022-10-07T13:22:09.486Z,2.20
2022-10-07T13:24:40.459Z,2.35
2022-10-07T13:27:09.462Z,1.98
2022-10-07T13:29:38.805Z,2.58
2022-10-07T13:32:10.190Z,2.95
2022-10-07T13:34:37.523Z,2.28
2022-10-07T13:37:37.695Z,2.65
2022-10-07T13:40:28.297Z,2.42
2022-10-07T13:42:59.118Z,2.10
2022-10-07T13:45:27.304Z,2.63
2022-10-07T13:47:55.247Z,2.08
2022-10-07T13:50:29.241Z,2.17
2022-10-07T13:52:57.367Z,2.40
2022-10-07T13:55:34.017Z,2.00
2022-10-07T13:58:04.296Z,2.13
2022-10-07T14:00:42.205Z,2.75
2022-10-07T14:03:14.027Z,1.85
2022-10-07T14:05:51.900Z,2.22
2022-10-07T14:08:24.326Z,3.10
2022-10-07T14:10:59.946Z,2.50
2022-10-07T14:13:29.008Z,2.55
2022-10-07T14:15:57.278Z,2.05
2022-10-07T14:18:25.139Z,2.25
2022-10-07T14:20:55.359Z,2.13
2022-10-07T14:23:32.864Z,2.80
2022-10-07T14:26:06.811Z,2.13
2022-10-07T14:28:35.952Z,2.70
2022-10-07T14:31:27.654Z,2.42
2022-10-07T14:34:26.604Z,1.98
2022-10-07T14:37:19.888Z,2.60
2022-10-07T14:39:48.883Z,2.40
2022-10-07T14:42:19.996Z,2.83
2022-10-07T14:44:47.478Z,2.75
2022-10-07T14:47:24.482Z,1.88
2022-10-07T14:49:52.780Z,2.53
2022-10-07T14:52:30.035Z,2.03
2022-10-07T14:55:07.572Z,2.10
2022-10-07T14:57:34.830Z,2.13
2022-10-07T15:00:01.724Z,2.30
2022-10-07T15:02:29.243Z,2.05
2022-10-07T15:04:56.381Z,1.88
2022-10-07T15:07:23.441Z,2.25
2022-10-07T15:09:50.233Z,1.80
2022-10-07T15:12:17.213Z,2.17
2022-10-07T15:14:44.215Z,2.83
2022-10-07T15:17:14.851Z,2.67
2022-10-07T15:19:41.868Z,2.10
2022-10-07T15:22:08.685Z,1.98
2022-10-07T15:24:35.934Z,1.98
2022-10-07T15:27:02.903Z,2.15
2022-10-07T15:29:29.791Z,2.00
2022-10-07T15:31:56.983Z,2.03
2022-10-07T15:34:24.164Z,2.03
2022-10-07T15:36:50.959Z,2.33
2022-10-07T15:39:17.848Z,2.05
2022-10-07T15:41:44.981Z,2.63
2022-10-07T15:44:18.975Z,2.30
2022-10-07T15:46:47.599Z,2.22
2022-10-07T15:49:16.892Z,2.63
2022-10-07T15:51:46.121Z,2.47
2022-10-07T15:54:13.454Z,2.65
2022-10-07T15:56:40.759Z,2.33
2022-10-07T15:59:07.606Z,3.00
2022-10-07T16:01:34.657Z,2.35
2022-10-07T16:04:03.165Z,2.22
2022-10-07T16:06:32.776Z,3.13
2022-10-07T16:09:00.616Z,2.15
2022-10-07T16:11:30.359Z,2.50
2022-10-07T16:13:59.695Z,2.30
2022-10-07T16:16:27.648Z,2.47
2022-10-07T16:18:57.783Z,2.60
2022-10-07T16:21:33.351Z,2.53
2022-10-07T16:24:08.928Z,3.53
2022-10-07T16:26:37.608Z,2.50
2022-10-07T16:29:31.555Z,2.70
2022-10-07T16:31:59.359Z,2.85
2022-10-07T16:34:28.065Z,2.67
2022-10-07T16:36:56.087Z,2.72
2022-10-07T16:39:23.473Z,3.00
2022-10-07T16:41:52.211Z,2.90
2022-10-07T16:44:20.153Z,2.03
2022-10-07T16:46:47.717Z,2.33
2022-10-07T16:49:17.228Z,2.83
2022-10-07T16:51:45.173Z,2.50
2022-10-07T16:54:15.918Z,2.70
2022-10-07T16:56:49.066Z,2.25
2022-10-07T16:59:23.272Z,2.40
2022-10-07T17:01:52.605Z,2.30
2022-10-07T17:04:19.672Z,3.22
2022-10-07T17:06:47.206Z,2.63
2022-10-07T17:09:14.456Z,2.03
2022-10-07T17:11:41.923Z,2.88
2022-10-07T17:14:18.371Z,2.70
2022-10-07T17:16:46.628Z,2.30
2022-10-07T17:19:17.549Z,2.28
2022-10-07T17:21:46.443Z,2.80
2022-10-07T17:24:13.504Z,2.53
2022-10-07T17:26:40.853Z,2.80
2022-10-07T17:29:09.962Z,2.88
2022-10-07T17:31:39.416Z,2.72
2022-10-07T17:34:07.452Z,2.30
2022-10-07T17:36:35.106Z,2.97
2022-10-07T17:39:02.426Z,2.47
2022-10-07T17:41:32.341Z,3.13
2022-10-07T17:44:01.288Z,2.85
2022-10-07T17:46:31.430Z,2.15
2022-10-07T17:49:00.323Z,2.50
2022-10-07T17:51:29.212Z,2.55
2022-10-07T17:53:57.898Z,3.30
2022-10-07T17:56:24.805Z,2.70
2022-10-07T17:58:51.783Z,2.35
2022-10-07T18:01:27.525Z,2.50
2022-10-07T18:04:00.028Z,2.53
2022-10-07T18:06:30.416Z,2.95
2022-10-07T18:08:59.139Z,2.22
2022-10-07T18:11:46.721Z,2.90
2022-10-07T18:14:32.577Z,3.35
2022-10-07T18:16:59.818Z,2.83
2022-10-07T18:19:27.363Z,3.08
2022-10-07T18:21:56.398Z,2.25
2022-10-07T18:24:29.326Z,3.45
2022-10-07T18:26:58.989Z,3.38
2022-10-07T18:29:31.427Z,2.88
2022-10-07T18:31:59.124Z,3.97
2022-10-07T18:34:26.072Z,3.10
2022-10-07T18:36:56.588Z,2.67
2022-10-07T18:39:25.003Z,2.90
2022-10-07T18:41:51.784Z,2.53
2022-10-07T18:44:18.717Z,2.72
2022-10-07T18:46:45.708Z,3.00
2022-10-07T18:49:15.409Z,3.53
2022-10-07T18:51:42.913Z,2.92
2022-10-07T18:54:10.496Z,2.92
2022-10-07T18:56:41.083Z,2.60
2022-10-07T18:59:10.014Z,3.20
2022-10-07T19:01:38.030Z,3.03
2022-10-07T19:04:06.312Z,2.70
2022-10-07T19:06:36.005Z,3.38
2022-10-07T19:09:06.693Z,2.78
2022-10-07T19:11:34.168Z,2.55
2022-10-07T19:14:01.516Z,3.20
2022-10-07T19:16:34.962Z,2.45
2022-10-07T19:19:02.980Z,3.00
2022-10-07T19:21:30.647Z,3.25
2022-10-07T19:24:04.532Z,2.88
2022-10-07T19:26:35.073Z,2.97
2022-10-07T19:29:03.307Z,3.00
2022-10-07T19:31:35.197Z,3.35
2022-10-07T19:34:05.105Z,2.70
2022-10-07T19:36:34.703Z,3.50
2022-10-07T19:39:02.588Z,2.80
2022-10-07T19:41:32.517Z,2.60
2022-10-07T19:43:59.918Z,2.97
2022-10-07T19:46:28.873Z,3.22
2022-10-07T19:48:58.168Z,3.35
2022-10-07T19:51:27.110Z,3.53
2022-10-07T19:53:57.206Z,3.03
2022-10-07T19:56:32.783Z,3.20
2022-10-07T20:01:31.901Z,2.92
2022-10-07T20:04:07.055Z,3.30
2022-10-07T20:06:36.454Z,3.00
2022-10-07T20:09:06.208Z,3.58
2022-10-07T20:11:33.874Z,3.80
2022-10-07T20:14:02.986Z,2.83
2022-10-07T20:16:31.102Z,3.15
2022-10-07T20:19:05.812Z,3.20
2022-10-07T20:21:35.645Z,3.15
2022-10-07T20:24:03.106Z,3.72
2022-10-07T20:26:35.909Z,3.15
2022-10-07T20:29:04.582Z,3.95
2022-10-07T20:31:34.901Z,3.70
2022-10-07T20:34:02.804Z,3.15
2022-10-07T20:36:35.543Z,3.35
2022-10-07T20:39:27.052Z,3.42
2022-10-07T20:42:13.037Z,2.88
2022-10-07T20:47:08.785Z,3.95
2022-10-07T20:49:37.450Z,3.38
2022-10-07T20:52:14.032Z,3.97
2022-10-07T20:54:40.877Z,3.25
2022-10-07T20:57:07.660Z,3.65
2022-10-07T20:59:34.582Z,3.03
2022-10-07T21:02:05.016Z,3.50
2022-10-07T21:04:34.168Z,3.88
2022-10-07T21:07:01.679Z,3.20
2022-10-07T21:09:28.695Z,3.28
2022-10-07T21:11:57.210Z,4.78
2022-10-07T21:14:24.115Z,4.07
2022-10-07T21:16:52.184Z,3.47
2022-10-07T21:19:19.152Z,3.30
2022-10-07T21:21:46.047Z,3.50
2022-10-07T21:24:12.938Z,3.88
2022-10-07T21:26:39.868Z,3.15
2022-10-07T21:29:09.466Z,4.25
2022-10-07T21:31:36.324Z,3.75
2022-10-07T21:34:10.680Z,3.45
2022-10-07T21:36:49.232Z,3.55
2022-10-07T21:39:18.665Z,3.80
2022-10-07T21:41:49.068Z,3.53
2022-10-07T21:44:16.127Z,3.63
2022-10-07T21:46:43.892Z,3.63
2022-10-07T21:49:11.359Z,3.83
2022-10-07T21:51:38.192Z,3.63
2022-10-07T21:54:05.625Z,3.40
2022-10-07T21:56:33.923Z,3.03
2022-10-07T21:59:01.597Z,3.35
2022-10-07T22:01:29.079Z,3.17
2022-10-07T22:03:57.823Z,4.20
2022-10-07T22:06:44.365Z,4.80
2022-10-07T22:09:12.538Z,3.58
2022-10-07T22:11:39.494Z,3.30
2022-10-07T22:14:11.361Z,3.65
2022-10-07T22:16:39.310Z,3.60
2022-10-07T22:19:06.533Z,3.90
2022-10-07T22:21:38.230Z,3.70
2022-10-07T22:24:07.214Z,3.90
2022-10-07T22:26:46.048Z,4.00
2022-10-07T22:29:15.025Z,3.35
2022-10-07T22:31:41.988Z,3.50
2022-10-07T22:34:08.911Z,3.80
2022-10-07T22:36:36.926Z,3.78
2022-10-07T22:39:04.411Z,3.92
2022-10-07T22:41:32.108Z,3.90
2022-10-07T22:43:59.666Z,4.13
2022-10-07T22:46:28.033Z,3.72
2022-10-07T22:48:58.559Z,4.38
2022-10-07T22:51:29.780Z,4.28
2022-10-07T22:53:57.022Z,3.38
2022-10-07T22:56:27.549Z,4.40
2022-10-07T22:58:59.766Z,3.90
2022-10-07T23:01:34.301Z,3.90
2022-10-07T23:04:03.419Z,4.40
2022-10-07T23:06:35.459Z,4.00
2022-10-07T23:09:03.472Z,4.30
2022-10-07T23:11:30.490Z,3.90
2022-10-07T23:13:57.390Z,4.47
2022-10-07T23:16:28.030Z,4.18
2022-10-07T23:18:54.955Z,4.50
2022-10-07T23:21:24.905Z,4.32
2022-10-07T23:23:54.103Z,4.53
2022-10-07T23:26:24.238Z,4.43
2022-10-07T23:28:52.162Z,4.95
2022-10-07T23:31:21.330Z,4.10
2022-10-07T23:33:51.864Z,5.07
2022-10-07T23:36:20.372Z,4.53
2022-10-07T23:38:48.688Z,4.50
2022-10-07T23:41:17.869Z,4.28
2022-10-07T23:43:44.663Z,4.60
2022-10-07T23:46:14.281Z,4.75
2022-10-07T23:48:42.231Z,4.78
2022-10-07T23:51:11.333Z,4.57
2022-10-07T23:53:38.738Z,4.20
2022-10-07T23:56:06.040Z,4.35
2022-10-07T23:58:34.027Z,4.55
